sensor_id;sensor_type;location;lat;lon;timestamp;pressure;altitude;pressure_sealevel;temperature;humidity
59417;BME280;45222;52.458;20.914;2022-11-03T12:51:06;101183.55;;;12.30;71.62
59417;BME280;45222;52.458;20.914;2022-11-03T12:54:11;101182.95;;;12.49;71.71
59417;BME280;45222;52.458;20.914;2022-11-03T12:57:17;101179.36;;;12.66;70.80
59417;BME280;45222;52.458;20.914;2022-11-03T13:00:22;101175.73;;;12.83;70.69
59417;BME280;45222;52.458;20.914;2022-11-03T13:03:28;101174.34;;;12.94;69.96
59417;BME280;45222;52.458;20.914;2022-11-03T13:06:34;101175.23;;;13.02;69.34
59417;BME280;45222;52.458;20.914;2022-11-03T13:09:40;101171.74;;;13.08;68.09
59417;BME280;45222;52.458;20.914;2022-11-03T13:12:45;101173.42;;;13.10;66.60
59417;BME280;45222;52.458;20.914;2022-11-03T13:15:50;101170.86;;;13.08;66.10
59417;BME280;45222;52.458;20.914;2022-11-03T13:18:56;101168.36;;;13.15;66.13
59417;BME280;45222;52.458;20.914;2022-11-03T13:22:01;101166.89;;;13.13;65.23
59417;BME280;45222;52.458;20.914;2022-11-03T13:25:08;101159.59;;;13.16;66.14
59417;BME280;45222;52.458;20.914;2022-11-03T13:28:13;101156.81;;;13.26;64.53
59417;BME280;45222;52.458;20.914;2022-11-03T13:31:18;101157.73;;;13.37;64.95
59417;BME280;45222;52.458;20.914;2022-11-03T13:34:24;101156.65;;;13.52;64.42
59417;BME280;45222;52.458;20.914;2022-11-03T13:37:29;101157.95;;;13.66;63.81
59417;BME280;45222;52.458;20.914;2022-11-03T13:40:34;101153.82;;;13.78;63.37
59417;BME280;45222;52.458;20.914;2022-11-03T13:43:40;101151.14;;;13.85;62.80
59417;BME280;45222;52.458;20.914;2022-11-03T13:46:45;101146.39;;;13.90;62.37
59417;BME280;45222;52.458;20.914;2022-11-03T13:49:50;101143.08;;;14.00;62.48
59417;BME280;45222;52.458;20.914;2022-11-03T13:52:56;101139.80;;;14.08;62.49
59417;BME280;45222;52.458;20.914;2022-11-03T13:56:01;101137.20;;;14.06;61.04
59417;BME280;45222;52.458;20.914;2022-11-03T13:59:06;101136.73;;;14.05;61.42
59417;BME280;45222;52.458;20.914;2022-11-03T14:02:12;101131.04;;;14.12;60.53
59417;BME280;45222;52.458;20.914;2022-11-03T14:05:18;101127.42;;;14.19;60.49
59417;BME280;45222;52.458;20.914;2022-11-03T14:08:23;101127.42;;;14.16;60.42
59417;BME280;45222;52.458;20.914;2022-11-03T14:11:28;101126.41;;;14.00;60.29
59417;BME280;45222;52.458;20.914;2022-11-03T14:14:51;101125.27;;;13.91;60.36
59417;BME280;45222;52.458;20.914;2022-11-03T14:17:57;101129.20;;;13.84;60.25
59417;BME280;45222;52.458;20.914;2022-11-03T14:21:02;101126.90;;;13.76;60.32
59417;BME280;45222;52.458;20.914;2022-11-03T14:24:08;101128.16;;;13.69;61.10
59417;BME280;45222;52.458;20.914;2022-11-03T14:27:13;101122.72;;;13.59;61.07
59417;BME280;45222;52.458;20.914;2022-11-03T14:30:19;101123.14;;;13.47;61.01
59417;BME280;45222;52.458;20.914;2022-11-03T14:33:24;101127.05;;;13.32;61.28
59417;BME280;45222;52.458;20.914;2022-11-03T14:36:30;101117.35;;;13.18;62.22
59417;BME280;45222;52.458;20.914;2022-11-03T14:39:35;101115.73;;;13.03;63.87
59417;BME280;45222;52.458;20.914;2022-11-03T14:42:41;101117.13;;;12.84;64.92
59417;BME280;45222;52.458;20.914;2022-11-03T14:45:46;101116.54;;;12.62;65.70
59417;BME280;45222;52.458;20.914;2022-11-03T14:48:51;101108.23;;;12.40;66.49
59417;BME280;45222;52.458;20.914;2022-11-03T14:51:58;101108.17;;;12.21;67.44
59417;BME280;45222;52.458;20.914;2022-11-03T14:55:06;101107.95;;;12.01;68.27
59417;BME280;45222;52.458;20.914;2022-11-03T14:58:11;101106.55;;;11.79;69.07
59417;BME280;45222;52.458;20.914;2022-11-03T15:01:17;101106.14;;;11.58;69.40
59417;BME280;45222;52.458;20.914;2022-11-03T15:04:23;101107.42;;;11.39;69.81
59417;BME280;45222;52.458;20.914;2022-11-03T15:07:28;101106.16;;;11.17;70.30
59417;BME280;45222;52.458;20.914;2022-11-03T15:10:35;101103.39;;;10.96;70.67
59417;BME280;45222;52.458;20.914;2022-11-03T15:13:40;101103.44;;;10.77;71.25
59417;BME280;45222;52.458;20.914;2022-11-03T15:16:46;101105.65;;;10.60;71.91
59417;BME280;45222;52.458;20.914;2022-11-03T15:19:51;101104.43;;;10.44;72.59
59417;BME280;45222;52.458;20.914;2022-11-03T15:22:56;101102.35;;;10.27;73.02
59417;BME280;45222;52.458;20.914;2022-11-03T15:26:02;101102.59;;;10.10;73.34
59417;BME280;45222;52.458;20.914;2022-11-03T15:29:08;101099.23;;;9.89;73.57
59417;BME280;45222;52.458;20.914;2022-11-03T15:32:13;101097.90;;;9.70;73.94
59417;BME280;45222;52.458;20.914;2022-11-03T15:35:19;101097.25;;;9.52;74.45
59417;BME280;45222;52.458;20.914;2022-11-03T15:38:24;101093.23;;;9.32;74.63
59417;BME280;45222;52.458;20.914;2022-11-03T15:41:30;101091.61;;;9.17;75.14
59417;BME280;45222;52.458;20.914;2022-11-03T15:44:35;101091.52;;;9.02;75.33
59417;BME280;45222;52.458;20.914;2022-11-03T15:47:40;101084.14;;;8.88;75.67
59417;BME280;45222;52.458;20.914;2022-11-03T15:50:46;101072.89;;;8.73;75.90
59417;BME280;45222;52.458;20.914;2022-11-03T15:53:51;101070.54;;;8.56;75.92
59417;BME280;45222;52.458;20.914;2022-11-03T15:56:57;101069.32;;;8.42;76.20
59417;BME280;45222;52.458;20.914;2022-11-03T16:00:03;101070.38;;;8.29;76.49
59417;BME280;45222;52.458;20.914;2022-11-03T16:03:09;101069.80;;;8.18;76.52
59417;BME280;45222;52.458;20.914;2022-11-03T16:06:14;101068.79;;;8.09;77.01
59417;BME280;45222;52.458;20.914;2022-11-03T16:09:20;101069.55;;;8.00;77.58
59417;BME280;45222;52.458;20.914;2022-11-03T16:12:26;101071.69;;;7.93;78.04
59417;BME280;45222;52.458;20.914;2022-11-03T16:15:31;101075.63;;;7.85;78.20
59417;BME280;45222;52.458;20.914;2022-11-03T16:18:37;101071.26;;;7.76;78.21
59417;BME280;45222;52.458;20.914;2022-11-03T16:21:43;101067.10;;;7.64;78.18
59417;BME280;45222;52.458;20.914;2022-11-03T16:24:48;101063.86;;;7.53;78.07
59417;BME280;45222;52.458;20.914;2022-11-03T16:27:54;101059.98;;;7.45;78.37
59417;BME280;45222;52.458;20.914;2022-11-03T16:31:00;101053.12;;;7.36;78.52
59417;BME280;45222;52.458;20.914;2022-11-03T16:34:05;101052.25;;;7.28;78.82
59417;BME280;45222;52.458;20.914;2022-11-03T16:37:10;101050.50;;;7.20;79.00
59417;BME280;45222;52.458;20.914;2022-11-03T16:40:17;101047.30;;;7.13;79.15
59417;BME280;45222;52.458;20.914;2022-11-03T16:43:22;101047.14;;;7.05;79.11
59417;BME280;45222;52.458;20.914;2022-11-03T16:46:28;101045.05;;;6.95;79.07
59417;BME280;45222;52.458;20.914;2022-11-03T16:49:33;101044.19;;;6.87;79.35
59417;BME280;45222;52.458;20.914;2022-11-03T16:52:44;101042.38;;;6.79;79.58
59417;BME280;45222;52.458;20.914;2022-11-03T16:55:50;101038.83;;;6.72;79.81
59417;BME280;45222;52.458;20.914;2022-11-03T16:58:55;101035.25;;;6.65;80.03
59417;BME280;45222;52.458;20.914;2022-11-03T17:02:01;101031.69;;;6.59;80.03
59417;BME280;45222;52.458;20.914;2022-11-03T17:05:08;101031.31;;;6.52;80.02
59417;BME280;45222;52.458;20.914;2022-11-03T17:08:13;101019.35;;;6.41;79.75
59417;BME280;45222;52.458;20.914;2022-11-03T17:11:19;100997.94;;;6.17;80.31
59417;BME280;45222;52.458;20.914;2022-11-03T17:14:38;100996.17;;;5.98;81.82
59417;BME280;45222;52.458;20.914;2022-11-03T17:17:44;100989.69;;;5.95;83.19
59417;BME280;45222;52.458;20.914;2022-11-03T17:20:49;100979.34;;;6.00;83.43
59417;BME280;45222;52.458;20.914;2022-11-03T17:23:55;100975.96;;;6.01;83.63
59417;BME280;45222;52.458;20.914;2022-11-03T17:27:03;100971.45;;;6.08;84.37
59417;BME280;45222;52.458;20.914;2022-11-03T17:30:14;100966.74;;;6.14;84.34
59417;BME280;45222;52.458;20.914;2022-11-03T17:33:21;100961.71;;;6.17;84.47
59417;BME280;45222;52.458;20.914;2022-11-03T17:36:27;100955.55;;;6.16;84.59
59417;BME280;45222;52.458;20.914;2022-11-03T17:39:33;100945.68;;;6.16;85.33
59417;BME280;45222;52.458;20.914;2022-11-03T17:42:42;100940.27;;;6.21;85.27
59417;BME280;45222;52.458;20.914;2022-11-03T17:45:48;100940.14;;;6.28;85.59
59417;BME280;45222;52.458;20.914;2022-11-03T17:48:53;100946.67;;;6.35;85.33
59417;BME280;45222;52.458;20.914;2022-11-03T17:51:59;100951.84;;;6.42;85.29
59417;BME280;45222;52.458;20.914;2022-11-03T17:55:12;100966.05;;;6.46;85.14
59417;BME280;45222;52.458;20.914;2022-11-03T17:58:25;100969.91;;;6.48;84.64
59417;BME280;45222;52.458;20.914;2022-11-03T18:01:32;100965.54;;;6.46;84.35
59417;BME280;45222;52.458;20.914;2022-11-03T18:04:37;100959.43;;;6.42;84.25
59417;BME280;45222;52.458;20.914;2022-11-03T18:07:43;100961.35;;;6.35;84.29
59417;BME280;45222;52.458;20.914;2022-11-03T18:10:49;100960.60;;;6.29;84.41
59417;BME280;45222;52.458;20.914;2022-11-03T18:13:56;100962.10;;;6.25;84.23
59417;BME280;45222;52.458;20.914;2022-11-03T18:17:02;100960.77;;;6.20;83.95
59417;BME280;45222;52.458;20.914;2022-11-03T18:20:14;100955.59;;;6.15;83.95
59417;BME280;45222;52.458;20.914;2022-11-03T18:23:22;100952.38;;;6.08;83.86
59417;BME280;45222;52.458;20.914;2022-11-03T18:26:28;100954.48;;;5.99;83.83
59417;BME280;45222;52.458;20.914;2022-11-03T18:29:34;100953.56;;;5.91;83.98
59417;BME280;45222;52.458;20.914;2022-11-03T18:32:40;100947.30;;;5.87;84.10
59417;BME280;45222;52.458;20.914;2022-11-03T18:35:46;100944.98;;;5.79;83.82
59417;BME280;45222;52.458;20.914;2022-11-03T18:38:52;100942.48;;;5.71;83.55
59417;BME280;45222;52.458;20.914;2022-11-03T18:42:00;100937.91;;;5.60;83.43
59417;BME280;45222;52.458;20.914;2022-11-03T18:45:11;100933.83;;;5.53;83.68
59417;BME280;45222;52.458;20.914;2022-11-03T18:48:17;100931.38;;;5.42;83.81
59417;BME280;45222;52.458;20.914;2022-11-03T18:51:23;100929.08;;;5.33;84.44
59417;BME280;45222;52.458;20.914;2022-11-03T18:54:28;100924.92;;;5.28;84.57
59417;BME280;45222;52.458;20.914;2022-11-03T18:57:35;100916.34;;;5.24;84.51
59417;BME280;45222;52.458;20.914;2022-11-03T19:00:40;100915.77;;;5.18;84.39
59417;BME280;45222;52.458;20.914;2022-11-03T19:03:46;100912.56;;;5.09;84.06
59417;BME280;45222;52.458;20.914;2022-11-03T19:06:51;100914.06;;;5.03;84.49
59417;BME280;45222;52.458;20.914;2022-11-03T19:09:57;100913.93;;;5.00;84.62
59417;BME280;45222;52.458;20.914;2022-11-03T19:13:04;100906.04;;;4.98;85.07
59417;BME280;45222;52.458;20.914;2022-11-03T19:16:13;100904.02;;;4.93;84.98
59417;BME280;45222;52.458;20.914;2022-11-03T19:19:19;100897.84;;;4.83;84.83
59417;BME280;45222;52.458;20.914;2022-11-03T19:22:25;100897.79;;;4.74;84.95
59417;BME280;45222;52.458;20.914;2022-11-03T19:25:30;100890.30;;;4.69;85.32
59417;BME280;45222;52.458;20.914;2022-11-03T19:28:36;100883.71;;;4.62;85.43
59417;BME280;45222;52.458;20.914;2022-11-03T19:31:44;100882.90;;;4.58;85.67
59417;BME280;45222;52.458;20.914;2022-11-03T19:34:52;100872.02;;;4.55;86.17
59417;BME280;45222;52.458;20.914;2022-11-03T19:38:02;100871.70;;;4.52;86.35
59417;BME280;45222;52.458;20.914;2022-11-03T19:41:13;100870.70;;;4.49;86.52
59417;BME280;45222;52.458;20.914;2022-11-03T19:44:36;100865.95;;;4.48;86.51
59417;BME280;45222;52.458;20.914;2022-11-03T19:47:44;100869.52;;;4.46;86.65
59417;BME280;45222;52.458;20.914;2022-11-03T19:50:51;100869.00;;;4.45;86.81
59417;BME280;45222;52.458;20.914;2022-11-03T19:53:57;100867.77;;;4.45;87.15
59417;BME280;45222;52.458;20.914;2022-11-03T19:57:02;100862.86;;;4.43;87.03
59417;BME280;45222;52.458;20.914;2022-11-03T20:00:15;100861.54;;;4.38;87.10
59417;BME280;45222;52.458;20.914;2022-11-03T20:03:21;100861.80;;;4.31;86.50
59417;BME280;45222;52.458;20.914;2022-11-03T20:06:27;100853.83;;;4.23;86.78
59417;BME280;45222;52.458;20.914;2022-11-03T20:09:33;100854.73;;;4.20;86.77
59417;BME280;45222;52.458;20.914;2022-11-03T20:12:40;100851.46;;;4.16;86.94
59417;BME280;45222;52.458;20.914;2022-11-03T20:15:46;100850.09;;;4.13;86.97
59417;BME280;45222;52.458;20.914;2022-11-03T20:18:52;100844.83;;;4.12;87.31
59417;BME280;45222;52.458;20.914;2022-11-03T20:21:58;100844.14;;;4.11;87.40
59417;BME280;45222;52.458;20.914;2022-11-03T20:25:05;100843.30;;;4.07;87.34
59417;BME280;45222;52.458;20.914;2022-11-03T20:28:17;100841.81;;;4.01;87.39
59417;BME280;45222;52.458;20.914;2022-11-03T20:31:24;100834.13;;;3.97;87.41
59417;BME280;45222;52.458;20.914;2022-11-03T20:34:29;100827.63;;;3.95;87.67
59417;BME280;45222;52.458;20.914;2022-11-03T20:37:35;100826.56;;;3.97;87.95
59417;BME280;45222;52.458;20.914;2022-11-03T20:40:41;100831.84;;;3.96;88.10
59417;BME280;45222;52.458;20.914;2022-11-03T20:43:47;100833.08;;;3.97;87.77
59417;BME280;45222;52.458;20.914;2022-11-03T20:46:52;100828.20;;;3.92;87.69
59417;BME280;45222;52.458;20.914;2022-11-03T20:49:58;100821.39;;;3.90;87.80
59417;BME280;45222;52.458;20.914;2022-11-03T20:53:03;100817.20;;;3.88;87.83
59417;BME280;45222;52.458;20.914;2022-11-03T20:56:14;100806.46;;;3.86;88.01
59417;BME280;45222;52.458;20.914;2022-11-03T20:59:20;100804.95;;;3.82;87.95
59417;BME280;45222;52.458;20.914;2022-11-03T21:02:28;100802.88;;;3.79;88.09
59417;BME280;45222;52.458;20.914;2022-11-03T21:05:33;100798.35;;;3.75;87.70
59417;BME280;45222;52.458;20.914;2022-11-03T21:08:39;100794.56;;;3.69;87.92
59417;BME280;45222;52.458;20.914;2022-11-03T21:11:46;100788.27;;;3.66;88.26
59417;BME280;45222;52.458;20.914;2022-11-03T21:14:52;100782.85;;;3.63;88.26
59417;BME280;45222;52.458;20.914;2022-11-03T21:18:17;100774.08;;;3.62;88.87
59417;BME280;45222;52.458;20.914;2022-11-03T21:21:40;100772.64;;;3.64;89.18
59417;BME280;45222;52.458;20.914;2022-11-03T21:24:46;100763.98;;;3.67;89.38
59417;BME280;45222;52.458;20.914;2022-11-03T21:27:52;100758.86;;;3.69;89.27
59417;BME280;45222;52.458;20.914;2022-11-03T21:30:58;100745.25;;;3.73;89.61
59417;BME280;45222;52.458;20.914;2022-11-03T21:34:04;100740.73;;;3.81;89.73
59417;BME280;45222;52.458;20.914;2022-11-03T21:37:12;100732.14;;;3.91;90.17
59417;BME280;45222;52.458;20.914;2022-11-03T21:40:19;100731.69;;;3.98;90.29
59417;BME280;45222;52.458;20.914;2022-11-03T21:43:24;100729.89;;;4.12;90.45
59417;BME280;45222;52.458;20.914;2022-11-03T21:46:44;100725.08;;;4.15;90.16
59417;BME280;45222;52.458;20.914;2022-11-03T21:49:51;100720.94;;;4.21;90.10
59417;BME280;45222;52.458;20.914;2022-11-03T21:52:56;100717.60;;;4.21;89.70
59417;BME280;45222;52.458;20.914;2022-11-03T21:56:03;100716.29;;;4.16;89.16
59417;BME280;45222;52.458;20.914;2022-11-03T21:59:09;100722.35;;;4.10;89.01
59417;BME280;45222;52.458;20.914;2022-11-03T22:02:14;100719.58;;;4.08;89.11
59417;BME280;45222;52.458;20.914;2022-11-03T22:05:19;100727.65;;;4.09;89.27
59417;BME280;45222;52.458;20.914;2022-11-03T22:08:24;100726.88;;;4.12;89.44
59417;BME280;45222;52.458;20.914;2022-11-03T22:11:30;100724.88;;;4.17;89.12
59417;BME280;45222;52.458;20.914;2022-11-03T22:14:35;100720.70;;;4.14;88.72
59417;BME280;45222;52.458;20.914;2022-11-03T22:18:01;100715.31;;;4.11;88.30
59417;BME280;45222;52.458;20.914;2022-11-03T22:21:08;100716.52;;;4.01;87.82
59417;BME280;45222;52.458;20.914;2022-11-03T22:24:31;100711.59;;;3.88;87.60
59417;BME280;45222;52.458;20.914;2022-11-03T22:27:54;100705.44;;;3.77;88.26
59417;BME280;45222;52.458;20.914;2022-11-03T22:31:03;100700.39;;;3.73;88.67
59417;BME280;45222;52.458;20.914;2022-11-03T22:34:41;100694.44;;;3.72;88.83
59417;BME280;45222;52.458;20.914;2022-11-03T22:38:06;100690.78;;;3.69;88.85
59417;BME280;45222;52.458;20.914;2022-11-03T22:41:11;100689.98;;;3.64;88.60
59417;BME280;45222;52.458;20.914;2022-11-03T22:44:34;100688.40;;;3.52;88.67
59417;BME280;45222;52.458;20.914;2022-11-03T22:47:57;100684.65;;;3.43;88.64
59417;BME280;45222;52.458;20.914;2022-11-03T22:51:05;100681.42;;;3.35;89.04
59417;BME280;45222;52.458;20.914;2022-11-03T22:54:12;100682.66;;;3.34;89.66
59417;BME280;45222;52.458;20.914;2022-11-03T22:57:17;100686.63;;;3.40;90.12
59417;BME280;45222;52.458;20.914;2022-11-03T23:00:22;100684.48;;;3.43;90.56
59417;BME280;45222;52.458;20.914;2022-11-03T23:03:30;100676.81;;;3.51;90.56
59417;BME280;45222;52.458;20.914;2022-11-03T23:06:38;100669.90;;;3.54;90.51
59417;BME280;45222;52.458;20.914;2022-11-03T23:09:44;100665.50;;;3.55;90.58
59417;BME280;45222;52.458;20.914;2022-11-03T23:12:49;100657.73;;;3.56;90.82
59417;BME280;45222;52.458;20.914;2022-11-03T23:15:55;100659.63;;;3.59;90.99
59417;BME280;45222;52.458;20.914;2022-11-03T23:19:00;100657.98;;;3.63;91.10
59417;BME280;45222;52.458;20.914;2022-11-03T23:22:23;100650.70;;;3.68;91.19
59417;BME280;45222;52.458;20.914;2022-11-03T23:25:28;100642.73;;;3.72;91.37
59417;BME280;45222;52.458;20.914;2022-11-03T23:28:35;100633.15;;;3.76;91.53
59417;BME280;45222;52.458;20.914;2022-11-03T23:31:41;100633.77;;;3.82;91.73
59417;BME280;45222;52.458;20.914;2022-11-03T23:34:47;100635.05;;;3.90;91.97
59417;BME280;45222;52.458;20.914;2022-11-03T23:37:53;100635.85;;;3.95;91.91
59417;BME280;45222;52.458;20.914;2022-11-03T23:41:02;100630.14;;;3.99;91.76
59417;BME280;45222;52.458;20.914;2022-11-03T23:44:06;100626.86;;;4.05;91.83
59417;BME280;45222;52.458;20.914;2022-11-03T23:47:11;100623.52;;;4.06;91.96
59417;BME280;45222;52.458;20.914;2022-11-03T23:50:34;100623.55;;;4.14;92.10
59417;BME280;45222;52.458;20.914;2022-11-03T23:53:42;100619.90;;;4.20;92.13
59417;BME280;45222;52.458;20.914;2022-11-03T23:56:48;100615.77;;;4.26;92.05
